createdAt,value
2019-05-19T00:00:02.957Z,15.09
2019-05-19T00:01:38.005Z,15.05
2019-05-19T00:03:12.277Z,15.06
2019-05-19T00:04:47.487Z,15.05
2019-05-19T00:06:21.713Z,15.03
2019-05-19T00:07:56.520Z,15.01
2019-05-19T00:09:30.789Z,14.99
2019-05-19T00:11:05.883Z,14.98
2019-05-19T00:12:40.081Z,14.95
2019-05-19T00:14:14.653Z,14.91
2019-05-19T00:15:48.908Z,14.88
2019-05-19T00:17:24.778Z,14.84
2019-05-19T00:18:59.003Z,14.84
2019-05-19T00:20:33.792Z,14.84
2019-05-19T00:22:08.084Z,14.80
2019-05-19T00:23:42.980Z,14.77
2019-05-19T00:25:17.229Z,14.71
2019-05-19T00:26:52.057Z,14.63
2019-05-19T00:28:26.292Z,14.58
2019-05-19T00:30:01.376Z,14.54
2019-05-19T00:31:35.664Z,14.54
2019-05-19T00:33:10.612Z,14.54
2019-05-19T00:34:44.922Z,14.53
2019-05-19T00:36:20.868Z,14.50
2019-05-19T00:37:55.143Z,14.52
2019-05-19T00:39:29.985Z,14.47
2019-05-19T00:41:04.200Z,14.43
2019-05-19T00:42:39.551Z,14.42
2019-05-19T00:44:13.803Z,14.41
2019-05-19T00:45:48.631Z,14.42
2019-05-19T00:47:22.957Z,14.42
2019-05-19T00:48:58.658Z,14.43
2019-05-19T00:50:32.868Z,14.45
2019-05-19T00:52:07.709Z,14.44
2019-05-19T00:53:41.933Z,14.44
2019-05-19T00:55:16.915Z,14.43
2019-05-19T00:56:51.664Z,14.43
2019-05-19T00:58:27.925Z,14.43
2019-05-19T01:00:03.619Z,14.41
2019-05-19T01:01:38.459Z,14.39
2019-05-19T01:03:12.692Z,14.37
2019-05-19T01:04:47.861Z,14.26
2019-05-19T01:06:23.556Z,14.35
2019-05-19T01:07:58.760Z,14.37
2019-05-19T01:09:33.054Z,14.35
2019-05-19T01:11:07.948Z,14.37
2019-05-19T01:12:42.259Z,14.37
2019-05-19T01:14:17.440Z,14.36
2019-05-19T01:15:51.680Z,14.35
2019-05-19T01:17:26.549Z,14.33
2019-05-19T01:19:00.780Z,14.30
2019-05-19T01:20:36.220Z,14.24
2019-05-19T01:22:11.566Z,14.17
2019-05-19T01:23:46.333Z,14.12
2019-05-19T01:25:20.564Z,14.09
2019-05-19T01:26:57.293Z,14.05
2019-05-19T01:28:32.916Z,14.01
2019-05-19T01:30:09.860Z,14.01
2019-05-19T01:31:44.091Z,14.00
2019-05-19T01:33:19.206Z,13.99
2019-05-19T01:34:53.425Z,14.00
2019-05-19T01:36:28.284Z,13.99
2019-05-19T01:38:02.519Z,13.99
2019-05-19T01:39:37.776Z,13.98
2019-05-19T01:41:12.005Z,13.98
2019-05-19T01:42:46.861Z,13.98
2019-05-19T01:44:21.200Z,13.91
2019-05-19T01:45:56.341Z,13.84
2019-05-19T01:47:30.541Z,13.77
2019-05-19T01:49:05.083Z,13.74
2019-05-19T01:50:39.348Z,13.71
2019-05-19T01:52:14.749Z,13.71
2019-05-19T01:53:48.967Z,13.68
2019-05-19T01:55:23.745Z,13.65
2019-05-19T01:56:58.021Z,13.65
2019-05-19T01:58:33.096Z,13.64
2019-05-19T02:00:09.188Z,13.64
2019-05-19T02:01:44.005Z,13.61
2019-05-19T02:03:18.298Z,13.56
2019-05-19T02:04:53.615Z,13.50
2019-05-19T02:06:27.846Z,13.52
2019-05-19T02:08:03.028Z,13.57
2019-05-19T02:09:37.280Z,13.58
2019-05-19T02:11:12.296Z,13.57
2019-05-19T02:12:46.522Z,13.58
2019-05-19T02:14:21.303Z,13.60
2019-05-19T02:15:55.570Z,13.62
2019-05-19T02:17:30.674Z,13.62
2019-05-19T02:19:05.305Z,13.63
2019-05-19T02:20:40.128Z,13.62
2019-05-19T02:22:14.388Z,13.62
2019-05-19T02:23:49.549Z,13.63
2019-05-19T02:25:24.136Z,13.63
2019-05-19T02:26:58.910Z,13.60
2019-05-19T02:28:33.144Z,13.62
2019-05-19T02:30:10.287Z,13.64
2019-05-19T02:31:44.513Z,13.67
2019-05-19T02:33:19.329Z,13.68
2019-05-19T02:34:53.561Z,13.68
2019-05-19T02:36:28.643Z,13.67
2019-05-19T02:38:02.872Z,13.68
2019-05-19T02:39:37.680Z,13.67
2019-05-19T02:41:14.764Z,13.67
2019-05-19T02:42:51.921Z,13.69
2019-05-19T02:44:27.421Z,13.67
2019-05-19T02:46:02.562Z,13.67
2019-05-19T02:47:38.398Z,13.66
2019-05-19T02:49:14.343Z,13.67
2019-05-19T02:50:52.725Z,13.67
2019-05-19T02:52:28.992Z,13.67
2019-05-19T02:54:06.198Z,13.69
2019-05-19T02:55:41.784Z,13.71
2019-05-19T02:57:17.189Z,13.69
2019-05-19T02:58:53.558Z,13.66
2019-05-19T03:00:36.522Z,13.65
2019-05-19T03:02:12.760Z,13.65
2019-05-19T03:03:47.069Z,13.60
2019-05-19T03:05:21.928Z,13.56
2019-05-19T03:06:56.153Z,13.52
2019-05-19T03:08:31.106Z,13.50
2019-05-19T03:10:06.361Z,13.02
2019-05-19T03:11:41.204Z,13.50
2019-05-19T03:13:15.439Z,13.47
2019-05-19T03:14:50.499Z,13.47
2019-05-19T03:16:24.726Z,13.49
2019-05-19T03:17:59.521Z,13.50
2019-05-19T03:19:33.799Z,13.49
2019-05-19T03:21:11.544Z,13.49
2019-05-19T03:22:44.895Z,13.48
2019-05-19T03:24:20.173Z,13.48
2019-05-19T03:25:54.710Z,13.47
2019-05-19T03:27:30.010Z,13.48
2019-05-19T03:29:04.237Z,13.47
2019-05-19T03:30:43.126Z,13.47
2019-05-19T03:32:24.799Z,13.43
2019-05-19T03:34:01.482Z,13.45
2019-05-19T03:35:35.710Z,13.47
2019-05-19T03:37:10.615Z,13.49
2019-05-19T03:38:44.848Z,13.55
2019-05-19T03:40:21.095Z,13.60
2019-05-19T03:41:55.766Z,13.63
2019-05-19T03:43:30.541Z,13.67
2019-05-19T03:45:05.662Z,13.74
2019-05-19T03:46:40.694Z,13.77
2019-05-19T03:48:14.961Z,13.37
2019-05-19T03:49:49.837Z,13.78
2019-05-19T03:51:31.081Z,13.78
2019-05-19T03:53:00.901Z,13.78
2019-05-19T03:54:36.645Z,13.80
2019-05-19T03:56:11.432Z,13.82
2019-05-19T03:57:46.086Z,13.83
2019-05-19T03:59:21.463Z,13.85
2019-05-19T04:00:55.709Z,13.92
2019-05-19T04:02:30.491Z,13.93
2019-05-19T04:04:04.724Z,13.94
2019-05-19T04:05:39.892Z,14.03
2019-05-19T04:07:14.122Z,14.16
2019-05-19T04:08:48.965Z,14.16
2019-05-19T04:10:23.185Z,14.13
2019-05-19T04:11:58.264Z,14.11
2019-05-19T04:13:32.498Z,14.10
2019-05-19T04:15:07.773Z,14.10
2019-05-19T04:16:42.011Z,14.10
2019-05-19T04:18:17.147Z,14.19
2019-05-19T04:19:51.456Z,14.27
2019-05-19T04:21:26.225Z,14.42
2019-05-19T04:23:00.457Z,14.49
2019-05-19T04:24:38.582Z,14.55
2019-05-19T04:26:12.861Z,14.68
2019-05-19T04:27:48.217Z,14.78
2019-05-19T04:29:22.429Z,14.84
2019-05-19T04:30:57.469Z,14.93
2019-05-19T04:32:31.687Z,15.04
2019-05-19T04:34:07.050Z,15.18
2019-05-19T04:35:41.353Z,15.32
2019-05-19T04:37:16.758Z,15.41
2019-05-19T04:38:50.969Z,15.56
2019-05-19T04:40:25.721Z,15.71
2019-05-19T04:41:59.933Z,15.88
2019-05-19T04:43:35.234Z,16.25
2019-05-19T04:45:10.537Z,16.72
2019-05-19T04:46:45.306Z,17.21
2019-05-19T04:48:19.506Z,17.66
2019-05-19T04:49:54.627Z,18.04
2019-05-19T04:51:28.832Z,18.08
2019-05-19T04:53:03.653Z,18.83
2019-05-19T04:54:37.930Z,19.08
2019-05-19T04:56:12.896Z,19.41
2019-05-19T04:57:47.095Z,19.75
2019-05-19T04:59:23.370Z,20.05
2019-05-19T05:00:57.582Z,20.45
2019-05-19T05:02:32.804Z,20.75
2019-05-19T05:04:06.994Z,20.98
2019-05-19T05:05:41.808Z,21.18
2019-05-19T05:07:16.061Z,21.40
2019-05-19T05:08:51.482Z,21.34
2019-05-19T05:10:25.682Z,21.30
2019-05-19T05:12:00.529Z,21.56
2019-05-19T05:13:34.731Z,21.88
2019-05-19T05:15:10.362Z,22.21
2019-05-19T05:16:44.640Z,22.38
2019-05-19T05:18:19.406Z,22.24
2019-05-19T05:19:53.705Z,22.16
2019-05-19T05:21:28.836Z,22.17
2019-05-19T05:23:03.048Z,22.13
2019-05-19T05:24:37.848Z,22.24
2019-05-19T05:26:12.044Z,22.37
2019-05-19T05:27:47.209Z,22.70
2019-05-19T05:29:21.538Z,23.10
2019-05-19T05:30:56.837Z,23.48
2019-05-19T05:32:31.117Z,23.87
2019-05-19T05:34:06.209Z,24.20
2019-05-19T05:35:40.428Z,24.53
2019-05-19T05:37:15.232Z,24.95
2019-05-19T05:38:49.439Z,25.42
2019-05-19T05:40:26.201Z,25.66
2019-05-19T05:42:00.408Z,26.05
2019-05-19T05:43:35.217Z,26.33
2019-05-19T05:45:10.325Z,26.56
2019-05-19T05:46:45.588Z,26.77
2019-05-19T05:48:19.832Z,26.96
2019-05-19T05:49:54.739Z,27.16
2019-05-19T05:51:28.915Z,27.47
2019-05-19T05:53:03.871Z,27.65
2019-05-19T05:54:38.191Z,27.40
2019-05-19T05:56:13.014Z,27.19
2019-05-19T05:57:47.333Z,27.28
2019-05-19T05:59:22.652Z,27.57
2019-05-19T06:00:56.855Z,27.76
2019-05-19T06:02:32.010Z,27.82
2019-05-19T06:04:06.352Z,27.72
2019-05-19T06:05:41.544Z,27.49
2019-05-19T06:07:15.747Z,27.49
2019-05-19T06:08:50.512Z,27.81
2019-05-19T06:10:24.777Z,27.97
2019-05-19T06:11:59.894Z,28.05
2019-05-19T06:13:34.124Z,28.16
2019-05-19T06:15:08.944Z,28.23
2019-05-19T06:16:43.197Z,28.46
2019-05-19T06:18:18.669Z,28.62
2019-05-19T06:19:52.870Z,28.60
2019-05-19T06:21:27.636Z,28.67
2019-05-19T06:23:01.897Z,28.87
2019-05-19T06:24:37.050Z,28.69
2019-05-19T06:26:11.263Z,28.41
2019-05-19T06:27:46.057Z,28.27
2019-05-19T06:29:20.265Z,28.33
2019-05-19T06:30:55.722Z,28.59
2019-05-19T06:32:31.665Z,28.81
2019-05-19T06:34:06.538Z,29.17
2019-05-19T06:35:40.757Z,29.65
2019-05-19T06:37:15.724Z,29.87
2019-05-19T06:38:50.027Z,29.97
2019-05-19T06:40:24.796Z,30.02
2019-05-19T06:41:59.425Z,30.16
2019-05-19T06:43:34.306Z,30.03
2019-05-19T06:45:10.124Z,29.96
2019-05-19T06:46:44.891Z,30.11
2019-05-19T06:48:20.294Z,29.98
2019-05-19T06:49:55.248Z,30.18
2019-05-19T06:51:29.444Z,30.31
2019-05-19T06:53:13.624Z,30.37
2019-05-19T06:54:40.107Z,29.96
2019-05-19T06:56:15.039Z,30.01
2019-05-19T06:57:49.313Z,29.91
2019-05-19T06:59:24.080Z,29.62
2019-05-19T07:00:59.256Z,29.29
2019-05-19T07:02:34.638Z,29.55
2019-05-19T07:04:08.849Z,30.00
2019-05-19T07:05:43.633Z,30.13
2019-05-19T07:07:17.891Z,30.31
2019-05-19T07:08:52.769Z,30.15
2019-05-19T07:10:26.972Z,30.32
2019-05-19T07:12:01.752Z,30.87
2019-05-19T07:13:36.002Z,31.36
2019-05-19T07:15:11.995Z,31.64
2019-05-19T07:16:46.205Z,31.98
2019-05-19T07:18:20.962Z,32.31
2019-05-19T07:19:55.722Z,32.62
2019-05-19T07:21:30.671Z,32.58
2019-05-19T07:23:04.918Z,32.79
2019-05-19T07:24:39.690Z,32.81
2019-05-19T07:26:13.900Z,32.58
2019-05-19T07:27:48.821Z,32.77
2019-05-19T07:29:23.031Z,33.00
2019-05-19T07:30:57.843Z,33.26
2019-05-19T07:32:32.029Z,33.53
2019-05-19T07:34:07.097Z,33.57
2019-05-19T07:35:41.552Z,33.66
2019-05-19T07:37:16.409Z,33.75
2019-05-19T07:38:50.682Z,33.66
2019-05-19T07:40:25.679Z,33.65
2019-05-19T07:41:59.894Z,33.82
2019-05-19T07:43:34.650Z,33.75
2019-05-19T07:45:09.558Z,34.02
2019-05-19T07:46:44.884Z,34.47
2019-05-19T07:48:19.077Z,34.33
2019-05-19T07:49:53.848Z,34.12
2019-05-19T07:51:28.111Z,34.48
2019-05-19T07:53:03.348Z,35.04
2019-05-19T07:54:37.544Z,35.51
2019-05-19T07:56:12.311Z,35.66
2019-05-19T07:57:46.571Z,35.76
2019-05-19T07:59:21.719Z,36.02
2019-05-19T08:00:55.923Z,35.92
2019-05-19T08:02:31.284Z,36.18
2019-05-19T08:04:05.499Z,36.13
2019-05-19T08:05:40.595Z,35.80
2019-05-19T08:07:15.110Z,35.85
2019-05-19T08:08:49.915Z,36.24
2019-05-19T08:10:24.192Z,36.28
2019-05-19T08:11:59.207Z,36.49
2019-05-19T08:13:33.443Z,36.48
2019-05-19T08:15:08.886Z,36.04
2019-05-19T08:16:43.040Z,36.05
2019-05-19T08:18:18.042Z,36.16
2019-05-19T08:19:52.244Z,35.78
2019-05-19T08:21:26.814Z,35.45
2019-05-19T08:23:01.095Z,35.31
2019-05-19T08:24:36.116Z,35.14
2019-05-19T08:26:10.326Z,35.26
2019-05-19T08:27:45.206Z,35.36
2019-05-19T08:29:19.418Z,35.64
2019-05-19T08:30:54.376Z,35.90
2019-05-19T08:32:28.625Z,36.37
2019-05-19T08:34:03.520Z,36.09
2019-05-19T08:35:37.692Z,36.08
2019-05-19T08:37:12.751Z,36.04
2019-05-19T08:38:47.009Z,36.31
2019-05-19T08:40:22.783Z,36.25
2019-05-19T08:41:57.032Z,36.55
2019-05-19T08:43:32.039Z,36.72
2019-05-19T08:45:09.744Z,36.77
2019-05-19T08:46:44.507Z,36.73
2019-05-19T08:48:18.705Z,37.17
2019-05-19T08:49:53.810Z,37.84
2019-05-19T08:51:28.049Z,38.16
2019-05-19T08:53:02.870Z,37.75
2019-05-19T08:54:37.137Z,37.40
2019-05-19T08:56:11.807Z,37.32
2019-05-19T08:57:46.017Z,37.69
2019-05-19T08:59:20.849Z,38.17
2019-05-19T09:00:55.107Z,38.36
2019-05-19T09:02:30.125Z,38.78
2019-05-19T09:04:04.385Z,39.19
2019-05-19T09:05:39.157Z,39.33
2019-05-19T09:07:13.373Z,39.52
2019-05-19T09:08:48.136Z,39.63
2019-05-19T09:10:22.388Z,39.93
2019-05-19T09:11:57.159Z,39.61
2019-05-19T09:13:31.440Z,39.27
2019-05-19T09:15:07.208Z,39.10
2019-05-19T09:16:41.496Z,39.07
2019-05-19T09:18:16.265Z,38.83
2019-05-19T09:19:50.542Z,39.07
2019-05-19T09:21:25.562Z,38.58
2019-05-19T09:23:02.180Z,38.50
2019-05-19T09:24:37.459Z,38.17
2019-05-19T09:26:11.759Z,37.90
2019-05-19T09:27:46.980Z,37.39
2019-05-19T09:29:21.195Z,37.75
2019-05-19T09:30:55.954Z,38.05
2019-05-19T09:32:30.273Z,37.98
2019-05-19T09:34:05.357Z,37.88
2019-05-19T09:35:39.572Z,37.66
2019-05-19T09:37:14.342Z,37.50
2019-05-19T09:38:48.982Z,37.05
2019-05-19T09:40:26.660Z,37.02
2019-05-19T09:41:59.890Z,36.69
2019-05-19T09:43:34.729Z,36.77
2019-05-19T09:45:09.935Z,36.70
2019-05-19T09:46:45.065Z,36.35
2019-05-19T09:48:19.275Z,36.41
2019-05-19T09:49:54.059Z,36.35
2019-05-19T09:51:28.366Z,36.07
2019-05-19T09:53:03.376Z,36.14
2019-05-19T09:54:45.426Z,35.71
2019-05-19T09:56:13.992Z,35.80
2019-05-19T09:57:48.248Z,35.84
2019-05-19T09:59:23.241Z,35.90
2019-05-19T10:00:57.491Z,35.74
2019-05-19T10:02:32.267Z,35.94
2019-05-19T10:04:07.185Z,36.55
2019-05-19T10:05:42.115Z,36.82
2019-05-19T10:07:17.507Z,36.98
2019-05-19T10:08:56.584Z,37.11
2019-05-19T10:11:07.681Z,37.39
2019-05-19T10:12:41.896Z,37.53
2019-05-19T10:14:16.660Z,36.96
2019-05-19T10:15:50.867Z,36.35
2019-05-19T10:17:26.120Z,35.82
2019-05-19T10:19:00.341Z,35.36
2019-05-19T10:20:35.160Z,35.05
2019-05-19T10:22:10.571Z,34.80
2019-05-19T10:23:46.425Z,34.66
2019-05-19T10:25:23.221Z,34.13
2019-05-19T10:26:58.344Z,34.05
2019-05-19T10:28:34.271Z,33.86
2019-05-19T10:30:11.369Z,33.73
2019-05-19T10:31:45.590Z,33.61
2019-05-19T10:33:20.366Z,33.63
2019-05-19T10:34:54.590Z,33.91
2019-05-19T10:36:29.841Z,33.94
2019-05-19T10:38:04.172Z,33.91
2019-05-19T10:39:40.469Z,33.92
2019-05-19T10:41:16.537Z,33.80
2019-05-19T10:42:53.084Z,33.76
2019-05-19T10:44:28.120Z,33.83
2019-05-19T10:46:02.906Z,33.73
2019-05-19T10:47:38.793Z,33.66
2019-05-19T10:49:13.863Z,33.63
2019-05-19T10:50:48.074Z,33.28
2019-05-19T10:52:24.320Z,33.19
2019-05-19T10:53:59.250Z,33.29
2019-05-19T10:55:37.197Z,33.43
2019-05-19T10:57:14.831Z,33.78
2019-05-19T10:58:49.370Z,33.53
2019-05-19T11:00:24.709Z,33.86
2019-05-19T11:02:00.001Z,33.91
2019-05-19T11:03:34.294Z,33.67
2019-05-19T11:05:11.224Z,33.86
2019-05-19T11:06:46.288Z,34.12
2019-05-19T11:08:21.355Z,34.22
2019-05-19T11:09:55.566Z,34.18
2019-05-19T11:11:30.342Z,34.17
2019-05-19T11:13:06.028Z,34.04
2019-05-19T11:14:41.163Z,33.84
2019-05-19T11:16:15.378Z,33.45
2019-05-19T11:17:50.233Z,33.16
2019-05-19T11:19:24.559Z,33.03
2019-05-19T11:20:59.936Z,33.17
2019-05-19T11:22:34.144Z,33.26
2019-05-19T11:24:08.905Z,33.35
2019-05-19T11:25:51.612Z,33.33
2019-05-19T11:27:25.411Z,33.34
2019-05-19T11:29:00.924Z,33.07
2019-05-19T11:30:35.757Z,32.93
2019-05-19T11:32:15.251Z,32.84
2019-05-19T11:33:51.326Z,32.67
2019-05-19T11:35:25.577Z,32.54
2019-05-19T11:37:03.204Z,32.77
2019-05-19T11:38:37.509Z,32.70
2019-05-19T11:40:13.594Z,32.51
2019-05-19T11:41:48.566Z,32.57
2019-05-19T11:43:23.426Z,32.67
2019-05-19T11:44:59.824Z,32.36
2019-05-19T11:46:35.938Z,32.15
2019-05-19T11:48:11.271Z,32.02
2019-05-19T11:49:47.278Z,32.11
2019-05-19T11:51:21.590Z,32.11
2019-05-19T11:52:56.684Z,32.17
2019-05-19T11:54:32.143Z,32.38
2019-05-19T11:56:10.993Z,32.64
2019-05-19T11:57:43.017Z,32.90
2019-05-19T11:59:19.858Z,32.85
2019-05-19T12:00:56.574Z,32.63
2019-05-19T12:02:31.101Z,32.34
2019-05-19T12:04:05.706Z,32.35
2019-05-19T12:05:41.917Z,32.51
2019-05-19T12:07:16.174Z,32.36
2019-05-19T12:08:50.951Z,32.23
2019-05-19T12:10:25.190Z,32.39
2019-05-19T12:12:00.698Z,32.41
2019-05-19T12:13:35.238Z,32.32
2019-05-19T12:15:11.209Z,32.28
2019-05-19T12:16:45.716Z,32.22
2019-05-19T12:18:20.681Z,32.17
2019-05-19T12:19:55.012Z,32.16
2019-05-19T12:21:29.850Z,32.21
2019-05-19T12:23:04.062Z,32.21
2019-05-19T12:24:38.959Z,32.17
2019-05-19T12:26:23.217Z,32.13
2019-05-19T12:27:51.202Z,32.29
2019-05-19T12:29:25.489Z,32.49
2019-05-19T12:31:01.506Z,32.68
2019-05-19T12:32:35.838Z,32.98
2019-05-19T12:34:10.649Z,33.02
2019-05-19T12:35:44.883Z,32.95
2019-05-19T12:37:20.140Z,32.78
2019-05-19T12:38:54.477Z,32.72
2019-05-19T12:40:32.049Z,32.62
2019-05-19T12:42:06.389Z,32.71
2019-05-19T12:43:41.458Z,32.81
2019-05-19T12:45:17.868Z,32.81
2019-05-19T12:46:52.646Z,32.77
2019-05-19T12:48:26.972Z,32.80
2019-05-19T12:50:02.395Z,32.53
2019-05-19T12:51:37.493Z,32.69
2019-05-19T12:53:12.332Z,32.87
2019-05-19T12:54:46.676Z,33.07
2019-05-19T12:56:21.781Z,33.07
2019-05-19T12:57:56.056Z,32.99
2019-05-19T12:59:30.816Z,32.91
2019-05-19T13:01:05.097Z,32.94
2019-05-19T13:02:40.251Z,33.06
2019-05-19T13:04:14.457Z,33.09
2019-05-19T13:05:49.265Z,33.09
2019-05-19T13:07:23.484Z,33.06
2019-05-19T13:08:58.417Z,32.79
2019-05-19T13:10:32.618Z,32.69
2019-05-19T13:12:07.413Z,32.79
2019-05-19T13:13:41.629Z,32.71
2019-05-19T13:15:17.496Z,32.55
2019-05-19T13:16:51.697Z,32.35
2019-05-19T13:18:26.502Z,32.41
2019-05-19T13:20:00.810Z,32.32
2019-05-19T13:21:35.872Z,32.27
2019-05-19T13:23:10.078Z,32.13
2019-05-19T13:24:44.952Z,31.94
2019-05-19T13:26:19.241Z,31.83
2019-05-19T13:27:54.197Z,31.60
2019-05-19T13:29:28.402Z,31.37
2019-05-19T13:31:03.292Z,31.44
2019-05-19T13:32:38.665Z,31.36
2019-05-19T13:34:13.434Z,31.01
2019-05-19T13:35:47.636Z,30.97
2019-05-19T13:37:22.452Z,31.05
2019-05-19T13:38:56.662Z,31.23
2019-05-19T13:40:31.796Z,31.38
2019-05-19T13:42:06.072Z,31.49
2019-05-19T13:43:40.888Z,31.66
2019-05-19T13:45:15.728Z,31.79
2019-05-19T13:46:50.702Z,31.74
2019-05-19T13:48:24.908Z,31.74
2019-05-19T13:49:59.813Z,31.65
2019-05-19T13:51:34.070Z,31.52
2019-05-19T13:53:09.151Z,31.49
2019-05-19T13:54:43.405Z,31.56
2019-05-19T13:56:18.176Z,31.50
2019-05-19T13:57:52.391Z,31.47
2019-05-19T13:59:27.627Z,31.48
2019-05-19T14:01:02.243Z,31.46
2019-05-19T14:02:37.056Z,31.40
2019-05-19T14:04:11.283Z,31.30
2019-05-19T14:05:46.296Z,31.23
2019-05-19T14:07:20.505Z,31.09
2019-05-19T14:08:55.312Z,31.05
2019-05-19T14:10:29.521Z,30.92
2019-05-19T14:12:04.519Z,30.81
2019-05-19T14:13:38.786Z,30.69
2019-05-19T14:15:14.057Z,30.48
2019-05-19T14:16:48.265Z,30.34
2019-05-19T14:18:23.253Z,30.17
2019-05-19T14:19:57.537Z,29.95
2019-05-19T14:21:32.398Z,29.85
2019-05-19T14:23:06.684Z,29.76
2019-05-19T14:24:41.926Z,29.65
2019-05-19T14:26:16.139Z,29.45
2019-05-19T14:27:50.936Z,29.32
2019-05-19T14:29:25.149Z,29.16
2019-05-19T14:30:59.890Z,28.99
2019-05-19T14:32:34.186Z,28.87
2019-05-19T14:34:08.990Z,28.79
2019-05-19T14:35:43.204Z,28.76
2019-05-19T14:37:18.159Z,28.70
2019-05-19T14:39:05.335Z,28.61
2019-05-19T14:40:38.165Z,28.51
2019-05-19T14:42:14.012Z,28.46
2019-05-19T14:43:49.027Z,28.42
2019-05-19T14:45:23.328Z,28.34
2019-05-19T14:46:58.124Z,28.35
2019-05-19T14:48:32.362Z,28.34
2019-05-19T14:50:08.003Z,28.34
2019-05-19T14:51:42.265Z,28.31
2019-05-19T14:53:17.989Z,28.15
2019-05-19T14:54:52.260Z,28.20
2019-05-19T14:56:27.297Z,28.18
2019-05-19T14:58:01.589Z,28.18
2019-05-19T14:59:36.434Z,28.19
2019-05-19T15:01:10.648Z,28.13
2019-05-19T15:02:45.647Z,28.13
2019-05-19T15:04:19.944Z,28.08
2019-05-19T15:05:54.790Z,28.09
2019-05-19T15:07:29.083Z,28.03
2019-05-19T15:09:04.852Z,28.06
2019-05-19T15:10:39.127Z,28.06
2019-05-19T15:12:13.918Z,28.02
2019-05-19T15:13:48.100Z,27.98
2019-05-19T15:15:23.532Z,27.95
2019-05-19T15:16:59.048Z,27.91
2019-05-19T15:18:35.706Z,27.95
2019-05-19T15:20:10.510Z,27.93
2019-05-19T15:21:45.483Z,27.90
2019-05-19T15:23:19.716Z,27.92
2019-05-19T15:24:54.538Z,27.86
2019-05-19T15:26:29.095Z,27.88
2019-05-19T15:28:05.408Z,27.85
2019-05-19T15:29:39.832Z,27.87
2019-05-19T15:31:14.360Z,27.85
2019-05-19T15:32:50.208Z,27.82
2019-05-19T15:34:25.518Z,27.83
2019-05-19T15:35:59.745Z,27.78
2019-05-19T15:37:34.588Z,27.80
2019-05-19T15:39:08.842Z,27.82
2019-05-19T15:40:44.070Z,27.76
2019-05-19T15:42:18.361Z,27.70
2019-05-19T15:43:53.129Z,27.66
2019-05-19T15:45:27.356Z,27.65
2019-05-19T15:47:02.653Z,27.61
2019-05-19T15:48:36.865Z,27.63
2019-05-19T15:50:11.839Z,27.61
2019-05-19T15:52:00.381Z,27.55
2019-05-19T15:53:23.071Z,27.60
2019-05-19T15:54:57.358Z,27.61
2019-05-19T15:56:32.124Z,27.60
2019-05-19T15:58:16.031Z,27.58
2019-05-19T15:59:43.386Z,27.54
2019-05-19T16:01:17.632Z,27.54
2019-05-19T16:02:52.381Z,27.53
2019-05-19T16:04:26.596Z,27.55
2019-05-19T16:06:01.776Z,27.56
2019-05-19T16:07:35.977Z,27.56
2019-05-19T16:09:10.830Z,27.57
2019-05-19T16:10:45.106Z,27.57
2019-05-19T16:12:20.141Z,27.58
2019-05-19T16:13:54.443Z,27.57
2019-05-19T16:15:29.207Z,27.56
2019-05-19T16:17:03.419Z,27.56
2019-05-19T16:18:38.624Z,27.57
2019-05-19T16:20:14.405Z,27.52
2019-05-19T16:21:49.177Z,27.51
2019-05-19T16:23:23.460Z,27.52
2019-05-19T16:24:58.810Z,27.54
2019-05-19T16:26:34.656Z,27.50
2019-05-19T16:28:09.425Z,27.49
2019-05-19T16:29:43.705Z,27.49
2019-05-19T16:31:18.950Z,27.50
2019-05-19T16:32:53.165Z,27.47
2019-05-19T16:34:27.939Z,27.41
2019-05-19T16:36:02.136Z,27.38
2019-05-19T16:37:37.063Z,27.36
2019-05-19T16:39:11.265Z,27.29
2019-05-19T16:40:46.033Z,27.31
2019-05-19T16:42:22.539Z,27.26
2019-05-19T16:43:57.531Z,27.22
2019-05-19T16:45:31.841Z,27.15
2019-05-19T16:47:06.784Z,27.13
2019-05-19T16:48:41.129Z,27.08
2019-05-19T16:50:16.278Z,27.07
2019-05-19T16:51:50.496Z,27.02
2019-05-19T16:53:25.308Z,26.99
2019-05-19T16:55:19.393Z,26.97
2019-05-19T16:56:54.157Z,26.96
2019-05-19T16:58:28.365Z,26.92
2019-05-19T17:00:03.282Z,26.90
2019-05-19T17:01:37.857Z,26.88
2019-05-19T17:03:12.655Z,26.89
2019-05-19T17:04:46.861Z,26.88
2019-05-19T17:06:21.704Z,26.88
2019-05-19T17:07:56.074Z,26.86
2019-05-19T17:09:30.841Z,26.83
2019-05-19T17:11:17.553Z,26.82
2019-05-19T17:12:41.553Z,26.83
2019-05-19T17:14:17.693Z,26.80
2019-05-19T17:15:52.516Z,26.82
2019-05-19T17:17:26.735Z,26.82
2019-05-19T17:19:02.068Z,26.82
2019-05-19T17:20:36.557Z,26.84
2019-05-19T17:22:11.318Z,26.88
2019-05-19T17:23:45.600Z,26.87
2019-05-19T17:25:20.418Z,26.86
2019-05-19T17:26:54.927Z,26.84
2019-05-19T17:28:29.769Z,26.75
2019-05-19T17:30:09.044Z,26.79
2019-05-19T17:31:44.420Z,26.78
2019-05-19T17:33:19.134Z,26.72
2019-05-19T17:34:53.973Z,26.71
2019-05-19T17:36:28.312Z,26.75
2019-05-19T17:38:03.161Z,26.76
2019-05-19T17:39:37.840Z,26.80
2019-05-19T17:41:13.721Z,26.77
2019-05-19T17:42:48.365Z,26.75
2019-05-19T17:44:23.164Z,26.71
2019-05-19T17:45:57.718Z,26.66
2019-05-19T17:47:32.568Z,26.62
2019-05-19T17:49:07.231Z,26.57
2019-05-19T17:50:41.774Z,26.54
2019-05-19T17:52:17.832Z,26.46
2019-05-19T17:53:53.463Z,26.41
2019-05-19T17:55:28.463Z,26.33
2019-05-19T17:57:05.868Z,26.28
2019-05-19T17:58:42.800Z,26.23
2019-05-19T18:00:21.618Z,26.19
2019-05-19T18:01:56.473Z,26.11
2019-05-19T18:03:31.053Z,26.05
2019-05-19T18:05:06.874Z,26.02
2019-05-19T18:06:41.123Z,25.96
2019-05-19T18:08:15.962Z,25.92
2019-05-19T18:09:51.710Z,25.88
2019-05-19T18:11:26.765Z,25.84
2019-05-19T18:13:00.993Z,25.77
2019-05-19T18:14:35.832Z,25.73
2019-05-19T18:16:11.615Z,25.68
2019-05-19T18:17:47.122Z,25.62
2019-05-19T18:19:24.612Z,25.53
2019-05-19T18:20:59.669Z,25.49
2019-05-19T18:22:34.668Z,25.45
2019-05-19T18:24:15.114Z,25.42
2019-05-19T18:25:49.372Z,25.39
2019-05-19T18:27:25.777Z,25.35
2019-05-19T18:29:00.094Z,25.29
2019-05-19T18:30:35.289Z,25.25
2019-05-19T18:32:09.629Z,25.21
2019-05-19T18:33:44.416Z,25.18
2019-05-19T18:35:21.133Z,25.16
2019-05-19T18:36:57.672Z,25.17
2019-05-19T18:38:31.923Z,25.21
2019-05-19T18:40:08.619Z,25.27
2019-05-19T18:41:42.833Z,25.36
2019-05-19T18:43:18.234Z,25.47
2019-05-19T18:44:52.573Z,25.62
2019-05-19T18:46:28.440Z,25.76
2019-05-19T18:48:02.715Z,25.89
2019-05-19T18:49:37.775Z,26.00
2019-05-19T18:51:12.089Z,26.06
2019-05-19T18:52:47.526Z,26.14
2019-05-19T18:54:21.804Z,26.13
2019-05-19T18:55:58.255Z,26.17
2019-05-19T18:57:33.985Z,26.17
2019-05-19T18:59:08.825Z,26.16
2019-05-19T19:00:43.105Z,26.15
2019-05-19T19:02:18.207Z,26.16
2019-05-19T19:03:53.785Z,26.14
2019-05-19T19:05:28.383Z,26.11
2019-05-19T19:07:04.221Z,26.04
2019-05-19T19:08:40.368Z,26.01
2019-05-19T19:10:16.425Z,25.94
2019-05-19T19:11:51.484Z,25.92
2019-05-19T19:13:25.753Z,25.89
2019-05-19T19:15:00.702Z,25.84
2019-05-19T19:16:35.031Z,25.79
2019-05-19T19:18:09.806Z,25.71
2019-05-19T19:19:44.157Z,25.76
2019-05-19T19:21:23.563Z,25.70
2019-05-19T19:22:58.521Z,25.68
2019-05-19T19:24:33.358Z,25.64
2019-05-19T19:26:09.102Z,25.59
2019-05-19T19:27:44.173Z,25.57
2019-05-19T19:29:18.395Z,25.54
2019-05-19T19:30:54.297Z,25.53
2019-05-19T19:32:28.620Z,25.49
2019-05-19T19:34:03.680Z,25.48
2019-05-19T19:35:39.554Z,25.49
2019-05-19T19:37:14.571Z,25.47
2019-05-19T19:38:48.776Z,25.42
2019-05-19T19:40:29.552Z,25.43
2019-05-19T19:42:03.798Z,25.42
2019-05-19T19:43:38.691Z,25.42
2019-05-19T19:45:13.016Z,25.39
2019-05-19T19:46:49.571Z,25.36
2019-05-19T19:48:26.873Z,25.36
2019-05-19T19:50:02.431Z,25.35
2019-05-19T19:51:36.640Z,25.30
2019-05-19T19:53:11.818Z,25.26
2019-05-19T19:54:46.146Z,25.21
2019-05-19T19:56:22.365Z,25.21
2019-05-19T19:57:56.573Z,25.18
2019-05-19T19:59:31.489Z,25.21
2019-05-19T20:01:05.729Z,25.20
2019-05-19T20:02:40.490Z,25.18
2019-05-19T20:04:14.775Z,25.18
2019-05-19T20:05:49.960Z,25.19
2019-05-19T20:07:24.236Z,25.17
2019-05-19T20:08:58.998Z,25.15
2019-05-19T20:10:33.238Z,25.10
2019-05-19T20:12:08.447Z,25.06
2019-05-19T20:13:42.661Z,25.02
2019-05-19T20:15:17.493Z,24.97
2019-05-19T20:16:51.766Z,24.91
2019-05-19T20:18:27.001Z,24.87
2019-05-19T20:20:01.210Z,24.81
2019-05-19T20:21:36.654Z,24.81
2019-05-19T20:23:10.917Z,24.80